ADDS TAF Data INFO
IDs: Format: Raw Decoded Include METARs

Data at: 1934 UTC 17 Jul 2018

KSAF 171853Z 10SM CLR 28/12 A3033 RMK AO2 LTG DSNT N AND S AND NW SLP159 T02780122

KSAF 171720Z 1718/1818 24007KT P6SM FEW080
  FM172300 23010KT P6SM VCSH SCT080
  FM180500 36007KT P6SM SCT100
  FM181700 32008KT P6SM FEW100